sensor_id;sensor_type;location;lat;lon;timestamp;P1;durP1;ratioP1;P2;durP2;ratioP2
64959;SDS011;51487;52.266;10.542;2022-07-01T00:01:24;10.18;;;7.18;;
64959;SDS011;51487;52.266;10.542;2022-07-01T00:03:50;10.60;;;7.38;;
64959;SDS011;51487;52.266;10.542;2022-07-01T00:06:18;10.73;;;7.50;;
64959;SDS011;51487;52.266;10.542;2022-07-01T00:08:45;12.68;;;7.05;;
64959;SDS011;51487;52.266;10.542;2022-07-01T00:11:11;14.18;;;6.90;;
64959;SDS011;51487;52.266;10.542;2022-07-01T00:13:37;8.55;;;6.35;;
64959;SDS011;51487;52.266;10.542;2022-07-01T00:16:03;10.13;;;6.05;;
64959;SDS011;51487;52.266;10.542;2022-07-01T00:18:29;9.98;;;6.30;;
64959;SDS011;51487;52.266;10.542;2022-07-01T00:20:55;10.60;;;6.18;;
64959;SDS011;51487;52.266;10.542;2022-07-01T00:23:22;8.85;;;5.85;;
64959;SDS011;51487;52.266;10.542;2022-07-01T00:25:47;9.57;;;5.40;;
64959;SDS011;51487;52.266;10.542;2022-07-01T00:28:13;8.63;;;5.10;;
64959;SDS011;51487;52.266;10.542;2022-07-01T00:30:39;8.45;;;5.43;;
64959;SDS011;51487;52.266;10.542;2022-07-01T00:33:05;8.45;;;5.00;;
64959;SDS011;51487;52.266;10.542;2022-07-01T00:35:31;5.72;;;4.70;;
64959;SDS011;51487;52.266;10.542;2022-07-01T00:37:56;5.65;;;4.20;;
64959;SDS011;51487;52.266;10.542;2022-07-01T00:40:23;8.35;;;4.30;;
64959;SDS011;51487;52.266;10.542;2022-07-01T00:42:49;7.38;;;4.50;;
64959;SDS011;51487;52.266;10.542;2022-07-01T00:45:15;6.07;;;4.65;;
64959;SDS011;51487;52.266;10.542;2022-07-01T00:47:41;6.68;;;4.43;;
64959;SDS011;51487;52.266;10.542;2022-07-01T00:50:09;13.55;;;4.97;;
64959;SDS011;51487;52.266;10.542;2022-07-01T00:52:40;9.90;;;4.80;;
64959;SDS011;51487;52.266;10.542;2022-07-01T00:55:09;6.78;;;4.43;;
64959;SDS011;51487;52.266;10.542;2022-07-01T00:57:38;5.30;;;4.43;;
64959;SDS011;51487;52.266;10.542;2022-07-01T01:00:07;6.78;;;3.78;;
64959;SDS011;51487;52.266;10.542;2022-07-01T01:02:36;8.57;;;4.45;;
64959;SDS011;51487;52.266;10.542;2022-07-01T01:05:07;5.90;;;4.10;;
64959;SDS011;51487;52.266;10.542;2022-07-01T01:07:33;5.70;;;4.68;;
64959;SDS011;51487;52.266;10.542;2022-07-01T01:10:00;8.10;;;4.18;;
64959;SDS011;51487;52.266;10.542;2022-07-01T01:12:28;7.15;;;4.13;;
64959;SDS011;51487;52.266;10.542;2022-07-01T01:14:54;5.57;;;4.18;;
64959;SDS011;51487;52.266;10.542;2022-07-01T01:17:22;5.85;;;4.07;;
64959;SDS011;51487;52.266;10.542;2022-07-01T01:19:50;5.35;;;4.10;;
64959;SDS011;51487;52.266;10.542;2022-07-01T01:22:17;6.10;;;4.57;;
64959;SDS011;51487;52.266;10.542;2022-07-01T01:24:44;7.50;;;4.50;;
64959;SDS011;51487;52.266;10.542;2022-07-01T01:27:12;6.80;;;4.38;;
64959;SDS011;51487;52.266;10.542;2022-07-01T01:29:39;6.53;;;3.95;;
64959;SDS011;51487;52.266;10.542;2022-07-01T01:32:06;5.70;;;4.35;;
64959;SDS011;51487;52.266;10.542;2022-07-01T01:34:32;7.43;;;4.18;;
64959;SDS011;51487;52.266;10.542;2022-07-01T01:37:00;6.40;;;3.95;;
64959;SDS011;51487;52.266;10.542;2022-07-01T01:39:26;6.22;;;4.13;;
64959;SDS011;51487;52.266;10.542;2022-07-01T01:41:51;9.27;;;4.15;;
64959;SDS011;51487;52.266;10.542;2022-07-01T01:44:17;7.70;;;4.18;;
64959;SDS011;51487;52.266;10.542;2022-07-01T01:46:43;7.20;;;4.18;;
64959;SDS011;51487;52.266;10.542;2022-07-01T01:49:09;4.75;;;3.75;;
64959;SDS011;51487;52.266;10.542;2022-07-01T01:51:36;4.50;;;3.65;;
64959;SDS011;51487;52.266;10.542;2022-07-01T01:54:02;6.47;;;3.88;;
64959;SDS011;51487;52.266;10.542;2022-07-01T01:56:28;9.10;;;3.85;;
64959;SDS011;51487;52.266;10.542;2022-07-01T01:58:54;4.43;;;3.38;;
64959;SDS011;51487;52.266;10.542;2022-07-01T02:01:21;5.38;;;4.32;;
64959;SDS011;51487;52.266;10.542;2022-07-01T02:03:47;5.88;;;3.70;;
64959;SDS011;51487;52.266;10.542;2022-07-01T02:06:16;6.03;;;3.97;;
64959;SDS011;51487;52.266;10.542;2022-07-01T02:08:43;6.68;;;4.03;;
64959;SDS011;51487;52.266;10.542;2022-07-01T02:11:09;6.82;;;4.05;;
64959;SDS011;51487;52.266;10.542;2022-07-01T02:13:35;4.57;;;3.40;;
64959;SDS011;51487;52.266;10.542;2022-07-01T02:16:02;5.97;;;3.80;;
64959;SDS011;51487;52.266;10.542;2022-07-01T02:18:28;7.60;;;4.55;;
64959;SDS011;51487;52.266;10.542;2022-07-01T02:20:55;4.85;;;3.67;;
64959;SDS011;51487;52.266;10.542;2022-07-01T02:23:21;4.53;;;3.67;;
64959;SDS011;51487;52.266;10.542;2022-07-01T02:25:47;5.18;;;4.38;;
64959;SDS011;51487;52.266;10.542;2022-07-01T02:28:13;8.55;;;4.00;;
64959;SDS011;51487;52.266;10.542;2022-07-01T02:30:39;6.47;;;4.40;;
64959;SDS011;51487;52.266;10.542;2022-07-01T02:33:06;9.38;;;5.20;;
64959;SDS011;51487;52.266;10.542;2022-07-01T02:35:34;6.63;;;5.10;;
64959;SDS011;51487;52.266;10.542;2022-07-01T02:38:02;6.63;;;3.90;;
64959;SDS011;51487;52.266;10.542;2022-07-01T02:40:29;7.13;;;4.22;;
64959;SDS011;51487;52.266;10.542;2022-07-01T02:42:55;5.88;;;4.53;;
64959;SDS011;51487;52.266;10.542;2022-07-01T02:45:20;6.20;;;3.78;;
64959;SDS011;51487;52.266;10.542;2022-07-01T02:47:46;4.63;;;3.70;;
64959;SDS011;51487;52.266;10.542;2022-07-01T02:50:13;9.63;;;4.50;;
64959;SDS011;51487;52.266;10.542;2022-07-01T02:52:40;15.73;;;7.32;;
64959;SDS011;51487;52.266;10.542;2022-07-01T02:55:08;10.73;;;5.60;;
64959;SDS011;51487;52.266;10.542;2022-07-01T02:57:37;11.73;;;5.93;;
64959;SDS011;51487;52.266;10.542;2022-07-01T03:00:04;8.77;;;5.10;;
64959;SDS011;51487;52.266;10.542;2022-07-01T03:02:36;6.57;;;4.28;;
64959;SDS011;51487;52.266;10.542;2022-07-01T03:05:02;9.07;;;5.10;;
64959;SDS011;51487;52.266;10.542;2022-07-01T03:07:29;10.60;;;5.07;;
64959;SDS011;51487;52.266;10.542;2022-07-01T03:09:55;9.85;;;5.22;;
64959;SDS011;51487;52.266;10.542;2022-07-01T03:12:22;6.57;;;5.53;;
64959;SDS011;51487;52.266;10.542;2022-07-01T03:14:51;6.28;;;4.80;;
64959;SDS011;51487;52.266;10.542;2022-07-01T03:17:29;5.80;;;4.47;;
64959;SDS011;51487;52.266;10.542;2022-07-01T03:19:59;5.60;;;3.97;;
64959;SDS011;51487;52.266;10.542;2022-07-01T03:22:27;5.60;;;4.88;;
64959;SDS011;51487;52.266;10.542;2022-07-01T03:24:55;6.03;;;4.32;;
64959;SDS011;51487;52.266;10.542;2022-07-01T03:27:22;4.75;;;3.70;;
64959;SDS011;51487;52.266;10.542;2022-07-01T03:29:49;5.95;;;3.45;;
64959;SDS011;51487;52.266;10.542;2022-07-01T03:32:15;4.38;;;3.28;;
64959;SDS011;51487;52.266;10.542;2022-07-01T03:34:41;5.55;;;4.18;;
64959;SDS011;51487;52.266;10.542;2022-07-01T03:37:13;5.00;;;3.70;;
64959;SDS011;51487;52.266;10.542;2022-07-01T03:39:40;4.18;;;3.10;;
64959;SDS011;51487;52.266;10.542;2022-07-01T03:42:06;4.15;;;3.30;;
64959;SDS011;51487;52.266;10.542;2022-07-01T03:44:34;2.28;;;1.92;;
64959;SDS011;51487;52.266;10.542;2022-07-01T03:47:02;3.70;;;2.20;;
64959;SDS011;51487;52.266;10.542;2022-07-01T03:49:30;2.80;;;2.10;;
64959;SDS011;51487;52.266;10.542;2022-07-01T03:52:00;3.70;;;2.00;;
64959;SDS011;51487;52.266;10.542;2022-07-01T03:54:27;2.10;;;1.90;;
64959;SDS011;51487;52.266;10.542;2022-07-01T03:57:01;1.70;;;1.48;;
64959;SDS011;51487;52.266;10.542;2022-07-01T03:59:29;2.15;;;1.50;;
64959;SDS011;51487;52.266;10.542;2022-07-01T04:01:57;1.42;;;1.30;;
64959;SDS011;51487;52.266;10.542;2022-07-01T04:04:25;1.38;;;1.27;;
64959;SDS011;51487;52.266;10.542;2022-07-01T04:06:55;1.73;;;1.38;;
64959;SDS011;51487;52.266;10.542;2022-07-01T04:09:24;3.60;;;1.67;;
64959;SDS011;51487;52.266;10.542;2022-07-01T04:11:51;4.30;;;1.90;;
64959;SDS011;51487;52.266;10.542;2022-07-01T04:14:17;1.70;;;1.50;;
64959;SDS011;51487;52.266;10.542;2022-07-01T04:16:43;2.80;;;1.77;;
64959;SDS011;51487;52.266;10.542;2022-07-01T04:19:11;2.03;;;1.70;;
64959;SDS011;51487;52.266;10.542;2022-07-01T04:21:39;3.25;;;1.60;;
64959;SDS011;51487;52.266;10.542;2022-07-01T04:24:24;1.50;;;1.30;;
64959;SDS011;51487;52.266;10.542;2022-07-01T04:26:50;2.25;;;1.48;;
64959;SDS011;51487;52.266;10.542;2022-07-01T04:29:17;3.13;;;1.60;;
64959;SDS011;51487;52.266;10.542;2022-07-01T04:31:44;3.40;;;2.35;;
64959;SDS011;51487;52.266;10.542;2022-07-01T04:34:10;3.83;;;2.90;;
64959;SDS011;51487;52.266;10.542;2022-07-01T04:36:36;4.78;;;2.72;;
64959;SDS011;51487;52.266;10.542;2022-07-01T04:39:03;3.38;;;2.70;;
64959;SDS011;51487;52.266;10.542;2022-07-01T04:41:30;4.65;;;3.22;;
64959;SDS011;51487;52.266;10.542;2022-07-01T04:44:15;3.53;;;2.10;;
64959;SDS011;51487;52.266;10.542;2022-07-01T04:46:45;2.70;;;2.45;;
64959;SDS011;51487;52.266;10.542;2022-07-01T04:49:10;4.03;;;2.65;;
64959;SDS011;51487;52.266;10.542;2022-07-01T04:51:36;3.17;;;2.85;;
64959;SDS011;51487;52.266;10.542;2022-07-01T04:54:03;4.43;;;2.85;;
64959;SDS011;51487;52.266;10.542;2022-07-01T04:56:31;3.45;;;2.47;;
64959;SDS011;51487;52.266;10.542;2022-07-01T04:58:58;3.10;;;2.42;;
64959;SDS011;51487;52.266;10.542;2022-07-01T05:01:25;2.85;;;2.30;;
64959;SDS011;51487;52.266;10.542;2022-07-01T05:03:51;4.20;;;2.30;;
64959;SDS011;51487;52.266;10.542;2022-07-01T05:06:17;2.13;;;1.92;;
64959;SDS011;51487;52.266;10.542;2022-07-01T05:08:43;2.83;;;1.83;;
64959;SDS011;51487;52.266;10.542;2022-07-01T05:11:08;2.67;;;1.73;;
64959;SDS011;51487;52.266;10.542;2022-07-01T05:13:34;1.63;;;1.52;;
64959;SDS011;51487;52.266;10.542;2022-07-01T05:16:00;2.63;;;1.60;;
64959;SDS011;51487;52.266;10.542;2022-07-01T05:18:27;3.65;;;1.95;;
64959;SDS011;51487;52.266;10.542;2022-07-01T05:21:12;2.28;;;1.80;;
64959;SDS011;51487;52.266;10.542;2022-07-01T05:23:56;1.83;;;1.65;;
64959;SDS011;51487;52.266;10.542;2022-07-01T05:26:21;2.65;;;1.65;;
64959;SDS011;51487;52.266;10.542;2022-07-01T05:28:49;2.47;;;1.55;;
64959;SDS011;51487;52.266;10.542;2022-07-01T05:31:15;1.65;;;1.55;;
64959;SDS011;51487;52.266;10.542;2022-07-01T05:33:41;2.28;;;1.70;;
64959;SDS011;51487;52.266;10.542;2022-07-01T05:36:06;2.75;;;1.85;;
64959;SDS011;51487;52.266;10.542;2022-07-01T05:38:32;3.53;;;1.80;;
64959;SDS011;51487;52.266;10.542;2022-07-01T05:40:57;1.65;;;1.35;;
64959;SDS011;51487;52.266;10.542;2022-07-01T05:43:23;1.83;;;1.67;;
64959;SDS011;51487;52.266;10.542;2022-07-01T05:45:48;2.25;;;1.85;;
64959;SDS011;51487;52.266;10.542;2022-07-01T05:48:14;1.90;;;1.80;;
64959;SDS011;51487;52.266;10.542;2022-07-01T05:50:40;3.58;;;2.20;;
64959;SDS011;51487;52.266;10.542;2022-07-01T05:53:05;2.25;;;1.98;;
64959;SDS011;51487;52.266;10.542;2022-07-01T05:55:32;4.72;;;2.75;;
64959;SDS011;51487;52.266;10.542;2022-07-01T05:57:58;3.40;;;2.42;;
64959;SDS011;51487;52.266;10.542;2022-07-01T06:00:26;3.58;;;2.58;;
64959;SDS011;51487;52.266;10.542;2022-07-01T06:02:52;2.17;;;1.98;;
64959;SDS011;51487;52.266;10.542;2022-07-01T06:05:18;3.50;;;2.13;;
64959;SDS011;51487;52.266;10.542;2022-07-01T06:07:44;3.58;;;2.13;;
64959;SDS011;51487;52.266;10.542;2022-07-01T06:10:10;3.65;;;1.92;;
64959;SDS011;51487;52.266;10.542;2022-07-01T06:12:36;2.83;;;1.90;;
64959;SDS011;51487;52.266;10.542;2022-07-01T06:15:04;3.00;;;1.90;;
64959;SDS011;51487;52.266;10.542;2022-07-01T06:17:35;22.70;;;5.55;;
64959;SDS011;51487;52.266;10.542;2022-07-01T06:20:01;3.58;;;1.95;;
64959;SDS011;51487;52.266;10.542;2022-07-01T06:22:28;3.03;;;2.20;;
64959;SDS011;51487;52.266;10.542;2022-07-01T06:24:53;4.88;;;2.17;;
64959;SDS011;51487;52.266;10.542;2022-07-01T06:27:19;2.95;;;2.20;;
64959;SDS011;51487;52.266;10.542;2022-07-01T06:29:44;3.97;;;2.00;;
64959;SDS011;51487;52.266;10.542;2022-07-01T06:32:10;3.47;;;1.90;;
64959;SDS011;51487;52.266;10.542;2022-07-01T06:34:36;4.50;;;1.90;;
64959;SDS011;51487;52.266;10.542;2022-07-01T06:37:03;4.43;;;2.10;;
64959;SDS011;51487;52.266;10.542;2022-07-01T06:39:29;3.97;;;2.10;;
64959;SDS011;51487;52.266;10.542;2022-07-01T06:41:55;6.30;;;2.17;;
64959;SDS011;51487;52.266;10.542;2022-07-01T06:44:21;3.88;;;2.30;;
64959;SDS011;51487;52.266;10.542;2022-07-01T06:46:47;4.40;;;2.22;;
64959;SDS011;51487;52.266;10.542;2022-07-01T06:49:13;5.00;;;2.30;;
64959;SDS011;51487;52.266;10.542;2022-07-01T06:51:39;4.57;;;2.38;;
64959;SDS011;51487;52.266;10.542;2022-07-01T06:54:05;6.70;;;2.22;;
64959;SDS011;51487;52.266;10.542;2022-07-01T06:56:31;3.75;;;2.15;;
64959;SDS011;51487;52.266;10.542;2022-07-01T06:58:57;5.72;;;2.45;;
64959;SDS011;51487;52.266;10.542;2022-07-01T07:01:23;5.50;;;2.20;;
64959;SDS011;51487;52.266;10.542;2022-07-01T07:03:49;4.35;;;2.65;;
64959;SDS011;51487;52.266;10.542;2022-07-01T07:06:14;3.13;;;2.70;;
64959;SDS011;51487;52.266;10.542;2022-07-01T07:08:40;4.63;;;3.13;;
64959;SDS011;51487;52.266;10.542;2022-07-01T07:11:06;4.13;;;3.15;;
64959;SDS011;51487;52.266;10.542;2022-07-01T07:13:34;3.30;;;2.45;;
64959;SDS011;51487;52.266;10.542;2022-07-01T07:16:01;4.25;;;2.90;;
64959;SDS011;51487;52.266;10.542;2022-07-01T07:18:27;5.40;;;3.40;;
64959;SDS011;51487;52.266;10.542;2022-07-01T07:20:53;4.03;;;2.80;;
64959;SDS011;51487;52.266;10.542;2022-07-01T07:23:19;5.38;;;2.97;;
64959;SDS011;51487;52.266;10.542;2022-07-01T07:25:44;3.10;;;2.80;;
64959;SDS011;51487;52.266;10.542;2022-07-01T07:28:10;8.23;;;3.65;;
64959;SDS011;51487;52.266;10.542;2022-07-01T07:30:36;4.45;;;3.25;;
64959;SDS011;51487;52.266;10.542;2022-07-01T07:33:01;3.70;;;3.10;;
64959;SDS011;51487;52.266;10.542;2022-07-01T07:35:27;5.03;;;3.63;;
64959;SDS011;51487;52.266;10.542;2022-07-01T07:37:52;5.10;;;3.08;;
64959;SDS011;51487;52.266;10.542;2022-07-01T07:40:18;6.40;;;3.60;;
64959;SDS011;51487;52.266;10.542;2022-07-01T07:42:44;5.63;;;3.60;;
64959;SDS011;51487;52.266;10.542;2022-07-01T07:45:12;5.80;;;3.65;;
64959;SDS011;51487;52.266;10.542;2022-07-01T07:47:41;5.65;;;3.55;;
64959;SDS011;51487;52.266;10.542;2022-07-01T07:50:09;5.20;;;3.88;;
64959;SDS011;51487;52.266;10.542;2022-07-01T07:52:36;5.07;;;3.53;;
64959;SDS011;51487;52.266;10.542;2022-07-01T07:55:02;5.63;;;3.88;;
64959;SDS011;51487;52.266;10.542;2022-07-01T07:57:29;5.03;;;3.50;;
64959;SDS011;51487;52.266;10.542;2022-07-01T07:59:56;5.25;;;3.58;;
64959;SDS011;51487;52.266;10.542;2022-07-01T08:02:21;4.88;;;3.08;;
64959;SDS011;51487;52.266;10.542;2022-07-01T08:04:47;4.28;;;3.60;;
64959;SDS011;51487;52.266;10.542;2022-07-01T08:07:12;5.18;;;3.50;;
64959;SDS011;51487;52.266;10.542;2022-07-01T08:09:38;4.85;;;3.33;;
64959;SDS011;51487;52.266;10.542;2022-07-01T08:12:04;3.97;;;2.78;;
64959;SDS011;51487;52.266;10.542;2022-07-01T08:14:30;7.13;;;2.00;;
64959;SDS011;51487;52.266;10.542;2022-07-01T08:16:56;5.47;;;2.72;;
64959;SDS011;51487;52.266;10.542;2022-07-01T08:19:21;3.95;;;2.63;;
64959;SDS011;51487;52.266;10.542;2022-07-01T08:21:47;2.47;;;2.28;;
64959;SDS011;51487;52.266;10.542;2022-07-01T08:24:13;4.60;;;2.60;;
64959;SDS011;51487;52.266;10.542;2022-07-01T08:26:39;2.90;;;2.30;;
64959;SDS011;51487;52.266;10.542;2022-07-01T08:29:04;2.83;;;2.50;;
64959;SDS011;51487;52.266;10.542;2022-07-01T08:31:30;3.22;;;2.50;;
64959;SDS011;51487;52.266;10.542;2022-07-01T08:33:56;7.57;;;3.10;;
64959;SDS011;51487;52.266;10.542;2022-07-01T08:36:23;3.08;;;2.53;;
64959;SDS011;51487;52.266;10.542;2022-07-01T08:38:49;3.05;;;2.40;;
64959;SDS011;51487;52.266;10.542;2022-07-01T08:41:14;4.80;;;2.85;;
64959;SDS011;51487;52.266;10.542;2022-07-01T08:43:42;3.10;;;2.80;;
64959;SDS011;51487;52.266;10.542;2022-07-01T08:46:08;4.50;;;2.72;;
64959;SDS011;51487;52.266;10.542;2022-07-01T08:48:34;3.20;;;2.88;;
64959;SDS011;51487;52.266;10.542;2022-07-01T08:51:00;4.07;;;3.05;;
64959;SDS011;51487;52.266;10.542;2022-07-01T08:53:31;3.75;;;2.75;;
64959;SDS011;51487;52.266;10.542;2022-07-01T08:55:57;4.90;;;3.22;;
64959;SDS011;51487;52.266;10.542;2022-07-01T08:58:41;6.32;;;2.78;;
64959;SDS011;51487;52.266;10.542;2022-07-01T09:01:15;4.90;;;2.92;;
64959;SDS011;51487;52.266;10.542;2022-07-01T09:03:49;4.28;;;2.95;;
64959;SDS011;51487;52.266;10.542;2022-07-01T09:06:18;6.72;;;3.38;;
64959;SDS011;51487;52.266;10.542;2022-07-01T09:08:47;4.82;;;3.30;;
64959;SDS011;51487;52.266;10.542;2022-07-01T09:11:14;3.95;;;2.70;;
64959;SDS011;51487;52.266;10.542;2022-07-01T09:16:54;3.95;;;3.40;;
64959;SDS011;51487;52.266;10.542;2022-07-01T09:19:29;4.97;;;3.50;;
64959;SDS011;51487;52.266;10.542;2022-07-01T09:22:00;7.53;;;3.90;;
64959;SDS011;51487;52.266;10.542;2022-07-01T09:27:08;5.03;;;4.28;;
64959;SDS011;51487;52.266;10.542;2022-07-01T09:29:39;6.47;;;4.15;;
64959;SDS011;51487;52.266;10.542;2022-07-01T09:32:09;4.20;;;3.70;;
64959;SDS011;51487;52.266;10.542;2022-07-01T09:37:15;4.50;;;3.17;;
64959;SDS011;51487;52.266;10.542;2022-07-01T09:42:18;3.95;;;2.88;;
64959;SDS011;51487;52.266;10.542;2022-07-01T09:45:01;3.78;;;3.08;;
64959;SDS011;51487;52.266;10.542;2022-07-01T09:47:33;3.92;;;3.35;;
64959;SDS011;51487;52.266;10.542;2022-07-01T09:50:01;5.40;;;3.10;;
64959;SDS011;51487;52.266;10.542;2022-07-01T09:52:29;4.25;;;3.30;;
64959;SDS011;51487;52.266;10.542;2022-07-01T09:54:55;5.07;;;3.80;;
64959;SDS011;51487;52.266;10.542;2022-07-01T09:57:21;4.47;;;3.45;;
64959;SDS011;51487;52.266;10.542;2022-07-01T09:59:50;5.38;;;3.72;;
64959;SDS011;51487;52.266;10.542;2022-07-01T10:02:20;5.78;;;4.18;;
64959;SDS011;51487;52.266;10.542;2022-07-01T10:04:53;4.97;;;4.30;;
64959;SDS011;51487;52.266;10.542;2022-07-01T10:13:23;5.53;;;4.72;;
64959;SDS011;51487;52.266;10.542;2022-07-01T10:15:52;5.25;;;4.53;;
64959;SDS011;51487;52.266;10.542;2022-07-01T10:18:25;5.57;;;4.80;;
64959;SDS011;51487;52.266;10.542;2022-07-01T10:20:53;5.60;;;4.88;;
64959;SDS011;51487;52.266;10.542;2022-07-01T10:23:21;4.90;;;4.40;;
64959;SDS011;51487;52.266;10.542;2022-07-01T10:25:53;6.32;;;4.32;;
64959;SDS011;51487;52.266;10.542;2022-07-01T10:28:49;7.32;;;5.25;;
64959;SDS011;51487;52.266;10.542;2022-07-01T10:31:18;8.05;;;5.00;;
64959;SDS011;51487;52.266;10.542;2022-07-01T10:33:46;6.65;;;5.32;;
64959;SDS011;51487;52.266;10.542;2022-07-01T10:36:31;6.35;;;4.80;;
64959;SDS011;51487;52.266;10.542;2022-07-01T10:41:30;4.55;;;3.95;;
64959;SDS011;51487;52.266;10.542;2022-07-01T10:44:09;6.05;;;3.80;;
64959;SDS011;51487;52.266;10.542;2022-07-01T10:46:43;4.65;;;4.10;;
64959;SDS011;51487;52.266;10.542;2022-07-01T10:49:14;7.05;;;4.22;;
64959;SDS011;51487;52.266;10.542;2022-07-01T10:51:46;4.15;;;3.67;;
64959;SDS011;51487;52.266;10.542;2022-07-01T11:02:19;4.70;;;3.85;;
64959;SDS011;51487;52.266;10.542;2022-07-01T11:10:04;4.28;;;3.50;;
64959;SDS011;51487;52.266;10.542;2022-07-01T11:12:32;7.68;;;3.53;;
64959;SDS011;51487;52.266;10.542;2022-07-01T11:14:59;6.07;;;3.53;;
64959;SDS011;51487;52.266;10.542;2022-07-01T11:17:27;4.85;;;3.22;;
64959;SDS011;51487;52.266;10.542;2022-07-01T11:19:54;6.25;;;3.60;;
64959;SDS011;51487;52.266;10.542;2022-07-01T11:22:26;7.07;;;3.65;;
64959;SDS011;51487;52.266;10.542;2022-07-01T11:25:04;5.77;;;3.47;;
64959;SDS011;51487;52.266;10.542;2022-07-01T11:27:33;4.75;;;3.78;;
64959;SDS011;51487;52.266;10.542;2022-07-01T11:30:03;4.90;;;3.63;;
64959;SDS011;51487;52.266;10.542;2022-07-01T11:32:40;5.97;;;4.00;;
64959;SDS011;51487;52.266;10.542;2022-07-01T11:35:19;6.25;;;3.60;;
64959;SDS011;51487;52.266;10.542;2022-07-01T11:38:18;4.72;;;3.70;;
64959;SDS011;51487;52.266;10.542;2022-07-01T11:41:04;5.28;;;4.10;;
64959;SDS011;51487;52.266;10.542;2022-07-01T11:43:34;7.38;;;4.10;;
64959;SDS011;51487;52.266;10.542;2022-07-01T11:46:03;5.97;;;4.28;;
64959;SDS011;51487;52.266;10.542;2022-07-01T11:48:44;9.32;;;4.47;;
64959;SDS011;51487;52.266;10.542;2022-07-01T11:51:17;6.38;;;4.60;;
64959;SDS011;51487;52.266;10.542;2022-07-01T11:53:49;7.80;;;4.68;;
64959;SDS011;51487;52.266;10.542;2022-07-01T11:56:18;6.53;;;4.28;;
64959;SDS011;51487;52.266;10.542;2022-07-01T11:59:04;7.20;;;4.40;;
64959;SDS011;51487;52.266;10.542;2022-07-01T12:01:30;5.35;;;4.72;;
64959;SDS011;51487;52.266;10.542;2022-07-01T12:03:59;6.10;;;5.25;;
64959;SDS011;51487;52.266;10.542;2022-07-01T12:06:28;8.00;;;5.22;;
64959;SDS011;51487;52.266;10.542;2022-07-01T12:08:55;6.60;;;5.00;;
64959;SDS011;51487;52.266;10.542;2022-07-01T12:11:22;7.28;;;5.45;;
64959;SDS011;51487;52.266;10.542;2022-07-01T12:13:50;6.47;;;4.97;;
64959;SDS011;51487;52.266;10.542;2022-07-01T12:16:17;8.73;;;4.85;;
64959;SDS011;51487;52.266;10.542;2022-07-01T12:18:57;7.05;;;5.70;;
64959;SDS011;51487;52.266;10.542;2022-07-01T12:21:26;8.07;;;5.55;;
64959;SDS011;51487;52.266;10.542;2022-07-01T12:26:34;9.52;;;5.80;;
64959;SDS011;51487;52.266;10.542;2022-07-01T12:29:10;7.63;;;5.82;;
64959;SDS011;51487;52.266;10.542;2022-07-01T12:31:35;7.93;;;5.88;;
64959;SDS011;51487;52.266;10.542;2022-07-01T12:34:07;7.07;;;5.30;;
64959;SDS011;51487;52.266;10.542;2022-07-01T12:36:33;6.57;;;5.75;;
64959;SDS011;51487;52.266;10.542;2022-07-01T12:39:04;8.30;;;6.00;;
64959;SDS011;51487;52.266;10.542;2022-07-01T12:41:34;6.40;;;5.53;;
64959;SDS011;51487;52.266;10.542;2022-07-01T12:44:05;5.93;;;5.30;;
64959;SDS011;51487;52.266;10.542;2022-07-01T12:46:45;10.20;;;6.53;;
64959;SDS011;51487;52.266;10.542;2022-07-01T12:49:18;9.50;;;6.40;;
64959;SDS011;51487;52.266;10.542;2022-07-01T12:51:53;9.35;;;6.20;;
64959;SDS011;51487;52.266;10.542;2022-07-01T12:54:34;8.80;;;5.90;;
64959;SDS011;51487;52.266;10.542;2022-07-01T12:57:03;10.13;;;6.10;;
64959;SDS011;51487;52.266;10.542;2022-07-01T12:59:29;8.25;;;5.97;;
64959;SDS011;51487;52.266;10.542;2022-07-01T13:01:55;7.00;;;5.88;;
64959;SDS011;51487;52.266;10.542;2022-07-01T13:04:28;8.68;;;6.93;;
64959;SDS011;51487;52.266;10.542;2022-07-01T13:06:54;11.30;;;7.28;;
64959;SDS011;51487;52.266;10.542;2022-07-01T13:09:20;10.43;;;7.32;;
64959;SDS011;51487;52.266;10.542;2022-07-01T13:11:46;8.23;;;7.43;;
64959;SDS011;51487;52.266;10.542;2022-07-01T13:14:11;9.10;;;7.28;;
64959;SDS011;51487;52.266;10.542;2022-07-01T13:16:37;9.05;;;6.63;;
64959;SDS011;51487;52.266;10.542;2022-07-01T13:19:03;8.23;;;6.57;;
64959;SDS011;51487;52.266;10.542;2022-07-01T13:21:29;7.93;;;6.88;;
64959;SDS011;51487;52.266;10.542;2022-07-01T13:23:55;9.05;;;6.45;;
64959;SDS011;51487;52.266;10.542;2022-07-01T13:26:21;7.85;;;6.15;;
64959;SDS011;51487;52.266;10.542;2022-07-01T13:28:47;7.10;;;6.32;;
64959;SDS011;51487;52.266;10.542;2022-07-01T13:31:13;9.02;;;6.07;;
64959;SDS011;51487;52.266;10.542;2022-07-01T13:33:38;9.13;;;6.20;;
64959;SDS011;51487;52.266;10.542;2022-07-01T13:36:04;6.57;;;5.97;;
64959;SDS011;51487;52.266;10.542;2022-07-01T13:38:31;7.18;;;5.57;;
64959;SDS011;51487;52.266;10.542;2022-07-01T13:40:56;7.30;;;6.03;;
64959;SDS011;51487;52.266;10.542;2022-07-01T13:43:22;8.52;;;6.70;;
64959;SDS011;51487;52.266;10.542;2022-07-01T13:45:48;7.55;;;6.20;;
64959;SDS011;51487;52.266;10.542;2022-07-01T13:48:14;6.32;;;5.47;;
64959;SDS011;51487;52.266;10.542;2022-07-01T13:50:39;6.88;;;5.63;;
64959;SDS011;51487;52.266;10.542;2022-07-01T13:53:05;7.38;;;5.85;;
64959;SDS011;51487;52.266;10.542;2022-07-01T13:55:30;7.05;;;6.18;;
64959;SDS011;51487;52.266;10.542;2022-07-01T13:57:56;6.32;;;5.45;;
64959;SDS011;51487;52.266;10.542;2022-07-01T14:00:22;6.75;;;5.10;;
64959;SDS011;51487;52.266;10.542;2022-07-01T14:02:48;7.40;;;5.13;;
64959;SDS011;51487;52.266;10.542;2022-07-01T14:05:14;5.90;;;4.75;;
64959;SDS011;51487;52.266;10.542;2022-07-01T14:07:40;4.95;;;4.30;;
64959;SDS011;51487;52.266;10.542;2022-07-01T14:10:05;7.07;;;4.28;;
64959;SDS011;51487;52.266;10.542;2022-07-01T14:12:32;5.82;;;3.47;;
64959;SDS011;51487;52.266;10.542;2022-07-01T14:14:57;5.38;;;3.72;;
64959;SDS011;51487;52.266;10.542;2022-07-01T14:17:27;6.78;;;3.83;;
64959;SDS011;51487;52.266;10.542;2022-07-01T14:19:54;5.57;;;3.80;;
64959;SDS011;51487;52.266;10.542;2022-07-01T14:22:21;4.30;;;3.28;;
64959;SDS011;51487;52.266;10.542;2022-07-01T14:24:47;4.95;;;3.30;;
64959;SDS011;51487;52.266;10.542;2022-07-01T14:27:13;4.97;;;3.10;;
64959;SDS011;51487;52.266;10.542;2022-07-01T14:29:38;4.95;;;2.95;;
64959;SDS011;51487;52.266;10.542;2022-07-01T14:32:04;5.82;;;3.15;;
64959;SDS011;51487;52.266;10.542;2022-07-01T14:34:30;4.00;;;2.78;;
64959;SDS011;51487;52.266;10.542;2022-07-01T14:36:56;4.32;;;2.95;;
64959;SDS011;51487;52.266;10.542;2022-07-01T14:39:22;5.03;;;2.60;;
64959;SDS011;51487;52.266;10.542;2022-07-01T14:41:47;7.10;;;2.67;;
64959;SDS011;51487;52.266;10.542;2022-07-01T14:44:16;3.95;;;2.60;;
64959;SDS011;51487;52.266;10.542;2022-07-01T14:46:42;6.85;;;3.00;;
64959;SDS011;51487;52.266;10.542;2022-07-01T14:49:08;4.53;;;3.00;;
64959;SDS011;51487;52.266;10.542;2022-07-01T14:51:34;6.95;;;3.10;;
64959;SDS011;51487;52.266;10.542;2022-07-01T14:53:59;5.47;;;3.35;;
64959;SDS011;51487;52.266;10.542;2022-07-01T14:56:25;5.35;;;3.20;;
64959;SDS011;51487;52.266;10.542;2022-07-01T14:58:51;5.13;;;3.25;;
64959;SDS011;51487;52.266;10.542;2022-07-01T15:01:17;7.10;;;3.20;;
64959;SDS011;51487;52.266;10.542;2022-07-01T15:03:43;5.65;;;2.70;;
64959;SDS011;51487;52.266;10.542;2022-07-01T15:06:09;4.30;;;3.08;;
64959;SDS011;51487;52.266;10.542;2022-07-01T15:08:34;5.90;;;3.20;;
64959;SDS011;51487;52.266;10.542;2022-07-01T15:11:02;6.00;;;3.05;;
64959;SDS011;51487;52.266;10.542;2022-07-01T15:13:29;6.03;;;3.33;;